sensor_id;sensor_type;location;lat;lon;timestamp;P1;durP1;ratioP1;P2;durP2;ratioP2
11228;SDS011;5671;47.936;8.716;2022-08-19T00:06:51;20.80;;;18.90;;
11228;SDS011;5671;47.936;8.716;2022-08-19T00:56:39;23.53;;;21.43;;
11228;SDS011;5671;47.936;8.716;2022-08-19T00:59:07;24.07;;;21.87;;
11228;SDS011;5671;47.936;8.716;2022-08-19T01:01:37;21.03;;;18.93;;
11228;SDS011;5671;47.936;8.716;2022-08-19T01:04:27;22.80;;;20.70;;
11228;SDS011;5671;47.936;8.716;2022-08-19T01:07:08;23.00;;;20.90;;
11228;SDS011;5671;47.936;8.716;2022-08-19T01:12:59;20.53;;;18.60;;
11228;SDS011;5671;47.936;8.716;2022-08-19T01:15:27;22.70;;;19.97;;
11228;SDS011;5671;47.936;8.716;2022-08-19T01:17:57;21.37;;;19.20;;
11228;SDS011;5671;47.936;8.716;2022-08-19T01:20:27;21.87;;;19.83;;
11228;SDS011;5671;47.936;8.716;2022-08-19T01:22:56;22.87;;;20.80;;
11228;SDS011;5671;47.936;8.716;2022-08-19T01:25:26;22.17;;;19.93;;
11228;SDS011;5671;47.936;8.716;2022-08-19T01:27:55;21.80;;;19.60;;
11228;SDS011;5671;47.936;8.716;2022-08-19T01:30:24;23.60;;;21.10;;
11228;SDS011;5671;47.936;8.716;2022-08-19T01:32:54;22.67;;;20.57;;
11228;SDS011;5671;47.936;8.716;2022-08-19T01:35:22;22.70;;;20.50;;
11228;SDS011;5671;47.936;8.716;2022-08-19T01:37:51;22.03;;;19.70;;
11228;SDS011;5671;47.936;8.716;2022-08-19T01:40:24;24.70;;;22.07;;
11228;SDS011;5671;47.936;8.716;2022-08-19T01:46:14;21.37;;;19.17;;
11228;SDS011;5671;47.936;8.716;2022-08-19T01:48:42;22.37;;;20.03;;
11228;SDS011;5671;47.936;8.716;2022-08-19T01:51:12;24.03;;;21.50;;
11228;SDS011;5671;47.936;8.716;2022-08-19T01:53:45;21.73;;;19.57;;
11228;SDS011;5671;47.936;8.716;2022-08-19T01:56:28;22.20;;;20.03;;
11228;SDS011;5671;47.936;8.716;2022-08-19T01:59:49;22.87;;;20.67;;
11228;SDS011;5671;47.936;8.716;2022-08-19T02:02:37;19.50;;;17.60;;
11228;SDS011;5671;47.936;8.716;2022-08-19T02:05:12;20.23;;;18.13;;
11228;SDS011;5671;47.936;8.716;2022-08-19T02:10:38;21.70;;;19.40;;
11228;SDS011;5671;47.936;8.716;2022-08-19T02:13:08;21.40;;;19.40;;
11228;SDS011;5671;47.936;8.716;2022-08-19T02:15:36;21.60;;;19.50;;
11228;SDS011;5671;47.936;8.716;2022-08-19T02:18:04;21.57;;;19.57;;
11228;SDS011;5671;47.936;8.716;2022-08-19T02:20:33;21.90;;;19.77;;
11228;SDS011;5671;47.936;8.716;2022-08-19T02:23:00;23.80;;;21.27;;
11228;SDS011;5671;47.936;8.716;2022-08-19T02:25:27;23.40;;;21.07;;
11228;SDS011;5671;47.936;8.716;2022-08-19T02:27:54;24.90;;;22.20;;
11228;SDS011;5671;47.936;8.716;2022-08-19T02:30:22;24.27;;;22.07;;
11228;SDS011;5671;47.936;8.716;2022-08-19T02:32:50;23.80;;;21.50;;
11228;SDS011;5671;47.936;8.716;2022-08-19T02:35:17;24.33;;;21.83;;
11228;SDS011;5671;47.936;8.716;2022-08-19T02:37:45;24.23;;;21.70;;
11228;SDS011;5671;47.936;8.716;2022-08-19T02:40:30;23.57;;;20.90;;
11228;SDS011;5671;47.936;8.716;2022-08-19T02:42:58;21.90;;;19.77;;
11228;SDS011;5671;47.936;8.716;2022-08-19T02:45:27;22.43;;;20.27;;
11228;SDS011;5671;47.936;8.716;2022-08-19T02:47:58;24.90;;;22.30;;
11228;SDS011;5671;47.936;8.716;2022-08-19T02:50:25;21.90;;;19.73;;
11228;SDS011;5671;47.936;8.716;2022-08-19T02:52:52;21.50;;;19.57;;
11228;SDS011;5671;47.936;8.716;2022-08-19T02:55:19;23.30;;;21.00;;
11228;SDS011;5671;47.936;8.716;2022-08-19T02:57:46;22.73;;;20.63;;
11228;SDS011;5671;47.936;8.716;2022-08-19T03:00:13;22.77;;;20.57;;
11228;SDS011;5671;47.936;8.716;2022-08-19T03:02:42;22.90;;;20.53;;
11228;SDS011;5671;47.936;8.716;2022-08-19T03:05:09;22.80;;;20.57;;
11228;SDS011;5671;47.936;8.716;2022-08-19T03:07:37;25.37;;;22.87;;
11228;SDS011;5671;47.936;8.716;2022-08-19T03:10:04;24.87;;;22.27;;
11228;SDS011;5671;47.936;8.716;2022-08-19T03:12:34;23.27;;;20.77;;
11228;SDS011;5671;47.936;8.716;2022-08-19T03:15:03;24.17;;;21.47;;
11228;SDS011;5671;47.936;8.716;2022-08-19T03:17:32;22.80;;;20.70;;
11228;SDS011;5671;47.936;8.716;2022-08-19T03:20:01;24.47;;;22.07;;
11228;SDS011;5671;47.936;8.716;2022-08-19T03:22:28;25.67;;;23.17;;
11228;SDS011;5671;47.936;8.716;2022-08-19T03:24:55;22.17;;;20.10;;
11228;SDS011;5671;47.936;8.716;2022-08-19T03:27:24;23.90;;;21.37;;
11228;SDS011;5671;47.936;8.716;2022-08-19T03:29:51;21.77;;;19.47;;
11228;SDS011;5671;47.936;8.716;2022-08-19T03:32:18;20.73;;;18.80;;
11228;SDS011;5671;47.936;8.716;2022-08-19T03:34:45;21.87;;;19.47;;
11228;SDS011;5671;47.936;8.716;2022-08-19T03:37:13;21.93;;;19.93;;
11228;SDS011;5671;47.936;8.716;2022-08-19T03:39:40;24.07;;;21.77;;
11228;SDS011;5671;47.936;8.716;2022-08-19T03:42:08;22.37;;;20.17;;
11228;SDS011;5671;47.936;8.716;2022-08-19T03:44:35;21.80;;;19.67;;
11228;SDS011;5671;47.936;8.716;2022-08-19T03:47:04;21.90;;;19.57;;
11228;SDS011;5671;47.936;8.716;2022-08-19T03:49:32;23.17;;;20.87;;
11228;SDS011;5671;47.936;8.716;2022-08-19T03:52:00;20.40;;;18.50;;
11228;SDS011;5671;47.936;8.716;2022-08-19T03:54:31;21.17;;;19.17;;
11228;SDS011;5671;47.936;8.716;2022-08-19T03:56:58;21.43;;;19.43;;
11228;SDS011;5671;47.936;8.716;2022-08-19T03:59:40;21.70;;;19.50;;
11228;SDS011;5671;47.936;8.716;2022-08-19T04:02:09;20.77;;;18.67;;
11228;SDS011;5671;47.936;8.716;2022-08-19T04:04:53;21.33;;;19.43;;
11228;SDS011;5671;47.936;8.716;2022-08-19T04:10:56;21.80;;;19.70;;
11228;SDS011;5671;47.936;8.716;2022-08-19T04:13:23;23.43;;;21.27;;
11228;SDS011;5671;47.936;8.716;2022-08-19T04:15:51;22.20;;;20.00;;
11228;SDS011;5671;47.936;8.716;2022-08-19T04:18:19;21.63;;;19.53;;
11228;SDS011;5671;47.936;8.716;2022-08-19T04:20:46;22.27;;;20.27;;
11228;SDS011;5671;47.936;8.716;2022-08-19T04:23:14;23.77;;;19.10;;
11228;SDS011;5671;47.936;8.716;2022-08-19T04:25:42;23.33;;;20.93;;
11228;SDS011;5671;47.936;8.716;2022-08-19T04:28:11;21.43;;;19.10;;
11228;SDS011;5671;47.936;8.716;2022-08-19T04:30:40;20.97;;;18.97;;
11228;SDS011;5671;47.936;8.716;2022-08-19T04:33:15;27.23;;;24.60;;
11228;SDS011;5671;47.936;8.716;2022-08-19T04:36:02;23.70;;;21.43;;
11228;SDS011;5671;47.936;8.716;2022-08-19T04:38:29;23.73;;;21.43;;
11228;SDS011;5671;47.936;8.716;2022-08-19T04:40:56;23.73;;;21.27;;
11228;SDS011;5671;47.936;8.716;2022-08-19T04:43:42;23.87;;;21.43;;
11228;SDS011;5671;47.936;8.716;2022-08-19T04:46:32;24.73;;;22.27;;
11228;SDS011;5671;47.936;8.716;2022-08-19T04:49:00;26.97;;;24.37;;
11228;SDS011;5671;47.936;8.716;2022-08-19T04:58:44;26.23;;;23.53;;
11228;SDS011;5671;47.936;8.716;2022-08-19T05:01:20;24.27;;;21.70;;
11228;SDS011;5671;47.936;8.716;2022-08-19T05:04:20;26.80;;;24.17;;
11228;SDS011;5671;47.936;8.716;2022-08-19T05:07:03;25.37;;;22.77;;
11228;SDS011;5671;47.936;8.716;2022-08-19T05:09:30;26.40;;;23.80;;
11228;SDS011;5671;47.936;8.716;2022-08-19T05:11:57;25.53;;;23.33;;
11228;SDS011;5671;47.936;8.716;2022-08-19T05:14:26;21.63;;;19.60;;
11228;SDS011;5671;47.936;8.716;2022-08-19T05:16:55;24.83;;;22.33;;
11228;SDS011;5671;47.936;8.716;2022-08-19T05:19:22;24.57;;;21.60;;
11228;SDS011;5671;47.936;8.716;2022-08-19T05:22:06;23.87;;;21.67;;
11228;SDS011;5671;47.936;8.716;2022-08-19T05:24:51;24.63;;;22.17;;
11228;SDS011;5671;47.936;8.716;2022-08-19T05:27:18;22.97;;;20.93;;
11228;SDS011;5671;47.936;8.716;2022-08-19T05:29:46;22.90;;;20.80;;
11228;SDS011;5671;47.936;8.716;2022-08-19T05:32:13;21.57;;;19.57;;
11228;SDS011;5671;47.936;8.716;2022-08-19T05:34:40;22.97;;;20.87;;
11228;SDS011;5671;47.936;8.716;2022-08-19T05:37:07;20.17;;;18.43;;
11228;SDS011;5671;47.936;8.716;2022-08-19T05:39:35;21.97;;;20.00;;
11228;SDS011;5671;47.936;8.716;2022-08-19T05:42:04;21.07;;;19.27;;
11228;SDS011;5671;47.936;8.716;2022-08-19T05:44:34;20.57;;;18.73;;
11228;SDS011;5671;47.936;8.716;2022-08-19T05:47:05;20.63;;;18.73;;
11228;SDS011;5671;47.936;8.716;2022-08-19T05:49:34;22.60;;;20.23;;
11228;SDS011;5671;47.936;8.716;2022-08-19T05:52:02;21.77;;;19.87;;
11228;SDS011;5671;47.936;8.716;2022-08-19T05:54:30;21.27;;;19.27;;
11228;SDS011;5671;47.936;8.716;2022-08-19T05:56:58;20.10;;;18.30;;
11228;SDS011;5671;47.936;8.716;2022-08-19T05:59:26;20.70;;;18.90;;
11228;SDS011;5671;47.936;8.716;2022-08-19T06:01:56;22.77;;;20.47;;
11228;SDS011;5671;47.936;8.716;2022-08-19T06:04:26;23.37;;;21.17;;
11228;SDS011;5671;47.936;8.716;2022-08-19T06:06:53;21.77;;;19.80;;
11228;SDS011;5671;47.936;8.716;2022-08-19T06:09:21;20.37;;;18.33;;
11228;SDS011;5671;47.936;8.716;2022-08-19T06:11:49;21.60;;;19.53;;
11228;SDS011;5671;47.936;8.716;2022-08-19T06:14:19;22.13;;;19.97;;
11228;SDS011;5671;47.936;8.716;2022-08-19T06:16:48;24.50;;;19.93;;
11228;SDS011;5671;47.936;8.716;2022-08-19T06:19:16;19.83;;;18.03;;
11228;SDS011;5671;47.936;8.716;2022-08-19T06:21:51;20.57;;;18.63;;
11228;SDS011;5671;47.936;8.716;2022-08-19T06:24:23;21.67;;;19.47;;
11228;SDS011;5671;47.936;8.716;2022-08-19T06:26:52;23.10;;;20.90;;
11228;SDS011;5671;47.936;8.716;2022-08-19T06:29:29;23.93;;;21.73;;
11228;SDS011;5671;47.936;8.716;2022-08-19T06:31:58;24.17;;;21.80;;
11228;SDS011;5671;47.936;8.716;2022-08-19T06:34:28;24.13;;;21.67;;
11228;SDS011;5671;47.936;8.716;2022-08-19T06:36:59;24.23;;;21.83;;
11228;SDS011;5671;47.936;8.716;2022-08-19T06:39:28;23.77;;;21.67;;
11228;SDS011;5671;47.936;8.716;2022-08-19T06:42:01;25.87;;;23.30;;
11228;SDS011;5671;47.936;8.716;2022-08-19T06:44:31;23.47;;;21.27;;
11228;SDS011;5671;47.936;8.716;2022-08-19T06:47:01;24.90;;;22.53;;
11228;SDS011;5671;47.936;8.716;2022-08-19T06:49:29;24.00;;;21.53;;
11228;SDS011;5671;47.936;8.716;2022-08-19T06:51:58;25.63;;;23.03;;
11228;SDS011;5671;47.936;8.716;2022-08-19T06:54:28;24.23;;;21.93;;
11228;SDS011;5671;47.936;8.716;2022-08-19T06:56:56;22.83;;;20.53;;
11228;SDS011;5671;47.936;8.716;2022-08-19T06:59:23;25.47;;;22.97;;
11228;SDS011;5671;47.936;8.716;2022-08-19T07:01:53;26.97;;;24.20;;
11228;SDS011;5671;47.936;8.716;2022-08-19T07:04:23;26.80;;;24.07;;
11228;SDS011;5671;47.936;8.716;2022-08-19T07:06:56;27.97;;;25.23;;
11228;SDS011;5671;47.936;8.716;2022-08-19T07:09:27;26.27;;;23.77;;
11228;SDS011;5671;47.936;8.716;2022-08-19T07:11:55;26.77;;;23.97;;
11228;SDS011;5671;47.936;8.716;2022-08-19T07:14:23;26.83;;;24.13;;
11228;SDS011;5671;47.936;8.716;2022-08-19T07:16:52;23.47;;;21.27;;
11228;SDS011;5671;47.936;8.716;2022-08-19T07:19:21;26.83;;;24.33;;
11228;SDS011;5671;47.936;8.716;2022-08-19T07:22:06;28.23;;;25.43;;
11228;SDS011;5671;47.936;8.716;2022-08-19T07:24:34;27.30;;;24.60;;
11228;SDS011;5671;47.936;8.716;2022-08-19T07:27:02;28.87;;;25.90;;
11228;SDS011;5671;47.936;8.716;2022-08-19T07:29:32;29.80;;;26.70;;
11228;SDS011;5671;47.936;8.716;2022-08-19T07:32:01;28.80;;;25.77;;
11228;SDS011;5671;47.936;8.716;2022-08-19T07:34:30;27.80;;;25.00;;
11228;SDS011;5671;47.936;8.716;2022-08-19T07:36:59;28.40;;;25.50;;
11228;SDS011;5671;47.936;8.716;2022-08-19T07:39:28;28.93;;;25.83;;
11228;SDS011;5671;47.936;8.716;2022-08-19T07:41:57;27.83;;;24.87;;
11228;SDS011;5671;47.936;8.716;2022-08-19T07:44:25;29.77;;;26.60;;
11228;SDS011;5671;47.936;8.716;2022-08-19T07:46:53;30.67;;;27.47;;
11228;SDS011;5671;47.936;8.716;2022-08-19T07:49:22;30.30;;;25.43;;
11228;SDS011;5671;47.936;8.716;2022-08-19T07:51:51;29.93;;;26.30;;
11228;SDS011;5671;47.936;8.716;2022-08-19T07:54:21;31.30;;;27.93;;
11228;SDS011;5671;47.936;8.716;2022-08-19T07:56:58;31.17;;;27.70;;
11228;SDS011;5671;47.936;8.716;2022-08-19T07:59:25;29.63;;;26.23;;
11228;SDS011;5671;47.936;8.716;2022-08-19T08:01:53;29.47;;;26.37;;
11228;SDS011;5671;47.936;8.716;2022-08-19T08:04:20;31.00;;;27.73;;
11228;SDS011;5671;47.936;8.716;2022-08-19T08:07:06;30.07;;;26.83;;
11228;SDS011;5671;47.936;8.716;2022-08-19T08:09:51;29.80;;;26.67;;
11228;SDS011;5671;47.936;8.716;2022-08-19T08:12:21;32.00;;;27.40;;
11228;SDS011;5671;47.936;8.716;2022-08-19T08:14:53;27.57;;;24.73;;
11228;SDS011;5671;47.936;8.716;2022-08-19T08:17:22;27.97;;;25.13;;
11228;SDS011;5671;47.936;8.716;2022-08-19T08:19:51;29.47;;;25.90;;
11228;SDS011;5671;47.936;8.716;2022-08-19T08:22:20;29.90;;;26.90;;
11228;SDS011;5671;47.936;8.716;2022-08-19T08:25:04;28.83;;;25.93;;
11228;SDS011;5671;47.936;8.716;2022-08-19T08:27:36;27.87;;;24.33;;
11228;SDS011;5671;47.936;8.716;2022-08-19T08:30:04;30.17;;;26.97;;
11228;SDS011;5671;47.936;8.716;2022-08-19T08:32:34;27.73;;;24.73;;
11228;SDS011;5671;47.936;8.716;2022-08-19T08:35:04;28.57;;;25.67;;
11228;SDS011;5671;47.936;8.716;2022-08-19T08:37:32;28.23;;;25.23;;
11228;SDS011;5671;47.936;8.716;2022-08-19T08:40:02;30.80;;;27.60;;
11228;SDS011;5671;47.936;8.716;2022-08-19T08:42:32;27.97;;;25.00;;
11228;SDS011;5671;47.936;8.716;2022-08-19T08:45:05;27.13;;;24.47;;
11228;SDS011;5671;47.936;8.716;2022-08-19T08:47:38;25.93;;;23.33;;
11228;SDS011;5671;47.936;8.716;2022-08-19T08:50:07;29.13;;;26.00;;
11228;SDS011;5671;47.936;8.716;2022-08-19T08:52:41;30.17;;;27.07;;
11228;SDS011;5671;47.936;8.716;2022-08-19T08:55:13;29.07;;;25.53;;
11228;SDS011;5671;47.936;8.716;2022-08-19T08:57:51;28.70;;;25.70;;
11228;SDS011;5671;47.936;8.716;2022-08-19T09:00:41;28.93;;;25.80;;
11228;SDS011;5671;47.936;8.716;2022-08-19T09:03:24;27.53;;;24.77;;
11228;SDS011;5671;47.936;8.716;2022-08-19T09:05:57;26.87;;;24.27;;
11228;SDS011;5671;47.936;8.716;2022-08-19T09:08:38;27.00;;;24.30;;
11228;SDS011;5671;47.936;8.716;2022-08-19T09:11:21;26.33;;;23.03;;
11228;SDS011;5671;47.936;8.716;2022-08-19T09:14:01;27.07;;;24.23;;
11228;SDS011;5671;47.936;8.716;2022-08-19T09:16:34;26.57;;;23.83;;
11228;SDS011;5671;47.936;8.716;2022-08-19T09:19:06;29.23;;;25.40;;
11228;SDS011;5671;47.936;8.716;2022-08-19T09:21:42;28.23;;;25.27;;
11228;SDS011;5671;47.936;8.716;2022-08-19T09:24:15;27.87;;;24.83;;
11228;SDS011;5671;47.936;8.716;2022-08-19T09:26:42;29.67;;;26.50;;
11228;SDS011;5671;47.936;8.716;2022-08-19T09:29:12;29.13;;;26.03;;
11228;SDS011;5671;47.936;8.716;2022-08-19T09:31:39;30.50;;;26.43;;
11228;SDS011;5671;47.936;8.716;2022-08-19T09:34:06;27.77;;;24.57;;
11228;SDS011;5671;47.936;8.716;2022-08-19T09:36:33;25.93;;;23.43;;
11228;SDS011;5671;47.936;8.716;2022-08-19T09:39:04;26.10;;;23.30;;
11228;SDS011;5671;47.936;8.716;2022-08-19T09:41:32;25.40;;;22.70;;
11228;SDS011;5671;47.936;8.716;2022-08-19T09:43:59;24.67;;;22.27;;
11228;SDS011;5671;47.936;8.716;2022-08-19T09:46:35;26.63;;;24.00;;
11228;SDS011;5671;47.936;8.716;2022-08-19T09:49:02;29.07;;;26.10;;
11228;SDS011;5671;47.936;8.716;2022-08-19T09:51:31;27.37;;;24.67;;
11228;SDS011;5671;47.936;8.716;2022-08-19T09:53:59;28.23;;;25.23;;
11228;SDS011;5671;47.936;8.716;2022-08-19T09:56:28;30.07;;;26.93;;
11228;SDS011;5671;47.936;8.716;2022-08-19T09:59:06;28.90;;;25.87;;
11228;SDS011;5671;47.936;8.716;2022-08-19T10:01:35;25.70;;;23.13;;
11228;SDS011;5671;47.936;8.716;2022-08-19T10:04:03;26.47;;;23.90;;
11228;SDS011;5671;47.936;8.716;2022-08-19T10:06:40;25.30;;;22.77;;
11228;SDS011;5671;47.936;8.716;2022-08-19T10:09:08;26.80;;;24.00;;
11228;SDS011;5671;47.936;8.716;2022-08-19T10:11:41;26.80;;;24.10;;
11228;SDS011;5671;47.936;8.716;2022-08-19T10:14:15;29.37;;;26.27;;
11228;SDS011;5671;47.936;8.716;2022-08-19T10:16:48;27.27;;;24.57;;
11228;SDS011;5671;47.936;8.716;2022-08-19T10:19:16;27.17;;;24.47;;
11228;SDS011;5671;47.936;8.716;2022-08-19T10:21:45;28.30;;;25.23;;
11228;SDS011;5671;47.936;8.716;2022-08-19T10:24:14;26.53;;;23.73;;
11228;SDS011;5671;47.936;8.716;2022-08-19T10:26:41;27.83;;;25.07;;
11228;SDS011;5671;47.936;8.716;2022-08-19T14:03:34;27.40;;;24.90;;
11228;SDS011;5671;47.936;8.716;2022-08-19T14:13:35;28.07;;;25.77;;
11228;SDS011;5671;47.936;8.716;2022-08-19T15:26:43;26.20;;;24.10;;
11228;SDS011;5671;47.936;8.716;2022-08-19T15:32:42;29.20;;;26.70;;
11228;SDS011;5671;47.936;8.716;2022-08-19T15:35:11;27.60;;;25.10;;
11228;SDS011;5671;47.936;8.716;2022-08-19T15:37:41;27.63;;;25.23;;
11228;SDS011;5671;47.936;8.716;2022-08-19T16:02:05;23.67;;;21.77;;
11228;SDS011;5671;47.936;8.716;2022-08-19T16:04:50;26.73;;;24.43;;
11228;SDS011;5671;47.936;8.716;2022-08-19T16:11:05;26.13;;;23.93;;
11228;SDS011;5671;47.936;8.716;2022-08-19T20:18:31;19.93;;;18.33;;
11228;SDS011;5671;47.936;8.716;2022-08-19T20:20:58;18.37;;;16.63;;
11228;SDS011;5671;47.936;8.716;2022-08-19T20:23:25;15.80;;;14.60;;
11228;SDS011;5671;47.936;8.716;2022-08-19T20:29:18;17.37;;;15.87;;
11228;SDS011;5671;47.936;8.716;2022-08-19T20:31:46;13.77;;;12.67;;
11228;SDS011;5671;47.936;8.716;2022-08-19T20:34:58;16.17;;;14.87;;
11228;SDS011;5671;47.936;8.716;2022-08-19T20:37:31;15.03;;;13.63;;
11228;SDS011;5671;47.936;8.716;2022-08-19T20:40:06;14.03;;;12.90;;
11228;SDS011;5671;47.936;8.716;2022-08-19T20:51:17;17.97;;;16.37;;
11228;SDS011;5671;47.936;8.716;2022-08-19T20:57:34;15.90;;;14.23;;
11228;SDS011;5671;47.936;8.716;2022-08-19T21:03:50;14.73;;;13.47;;
11228;SDS011;5671;47.936;8.716;2022-08-19T21:09:34;13.03;;;11.80;;
11228;SDS011;5671;47.936;8.716;2022-08-19T21:12:04;12.73;;;11.37;;
11228;SDS011;5671;47.936;8.716;2022-08-19T21:15:10;15.67;;;13.97;;
11228;SDS011;5671;47.936;8.716;2022-08-19T21:17:37;19.80;;;13.37;;
11228;SDS011;5671;47.936;8.716;2022-08-19T21:20:04;21.93;;;13.40;;
11228;SDS011;5671;47.936;8.716;2022-08-19T21:22:33;14.17;;;12.77;;
11228;SDS011;5671;47.936;8.716;2022-08-19T21:41:45;14.93;;;13.63;;
11228;SDS011;5671;47.936;8.716;2022-08-19T22:08:51;18.43;;;16.73;;
11228;SDS011;5671;47.936;8.716;2022-08-19T22:11:19;18.20;;;16.07;;
11228;SDS011;5671;47.936;8.716;2022-08-19T22:13:48;61.37;;;16.30;;
11228;SDS011;5671;47.936;8.716;2022-08-19T22:16:17;48.10;;;16.17;;
11228;SDS011;5671;47.936;8.716;2022-08-19T22:18:48;21.83;;;15.23;;
11228;SDS011;5671;47.936;8.716;2022-08-19T22:21:16;23.20;;;12.93;;
11228;SDS011;5671;47.936;8.716;2022-08-19T22:23:51;14.47;;;13.07;;
11228;SDS011;5671;47.936;8.716;2022-08-19T22:26:24;16.07;;;14.40;;
11228;SDS011;5671;47.936;8.716;2022-08-19T22:28:51;17.10;;;15.60;;
11228;SDS011;5671;47.936;8.716;2022-08-19T22:31:18;16.23;;;14.83;;
11228;SDS011;5671;47.936;8.716;2022-08-19T22:33:45;16.13;;;14.83;;
11228;SDS011;5671;47.936;8.716;2022-08-19T22:36:13;19.23;;;16.60;;
11228;SDS011;5671;47.936;8.716;2022-08-19T22:38:41;19.17;;;17.47;;
11228;SDS011;5671;47.936;8.716;2022-08-19T22:44:40;17.80;;;16.33;;
11228;SDS011;5671;47.936;8.716;2022-08-19T22:47:07;19.03;;;17.43;;
11228;SDS011;5671;47.936;8.716;2022-08-19T22:49:36;18.50;;;17.00;;
11228;SDS011;5671;47.936;8.716;2022-08-19T22:59:07;18.50;;;16.87;;
11228;SDS011;5671;47.936;8.716;2022-08-19T23:02:05;17.80;;;16.33;;
11228;SDS011;5671;47.936;8.716;2022-08-19T23:05:05;17.60;;;14.80;;
11228;SDS011;5671;47.936;8.716;2022-08-19T23:07:58;23.00;;;17.00;;
11228;SDS011;5671;47.936;8.716;2022-08-19T23:10:27;17.33;;;14.67;;
11228;SDS011;5671;47.936;8.716;2022-08-19T23:12:55;61.00;;;16.27;;
11228;SDS011;5671;47.936;8.716;2022-08-19T23:15:25;53.00;;;15.00;;
11228;SDS011;5671;47.936;8.716;2022-08-19T23:17:55;32.00;;;13.87;;
11228;SDS011;5671;47.936;8.716;2022-08-19T23:20:24;23.90;;;16.13;;
11228;SDS011;5671;47.936;8.716;2022-08-19T23:22:54;48.13;;;15.83;;
11228;SDS011;5671;47.936;8.716;2022-08-19T23:25:28;113.03;;;17.50;;
11228;SDS011;5671;47.936;8.716;2022-08-19T23:28:25;51.00;;;14.57;;
11228;SDS011;5671;47.936;8.716;2022-08-19T23:31:11;20.93;;;15.10;;
11228;SDS011;5671;47.936;8.716;2022-08-19T23:33:40;47.17;;;14.57;;
11228;SDS011;5671;47.936;8.716;2022-08-19T23:36:09;115.60;;;16.60;;
11228;SDS011;5671;47.936;8.716;2022-08-19T23:38:38;47.93;;;14.63;;
